Terminal Aerodrome Forecast
Issued by NWS Duluth, MN

Home | Current Version | Previous Version | Text Only | Print | Product List | Glossary On
Versions: 1 2 3 4 5 6 7 8 9 10 11 12 13 14 15 16 17 18
000
FTUS43 KDLH 201131
TAFDLH
TAF
KDLH 201131Z 2012/2112 17006KT 5SM -SNRA BKN012 OVC060
     FM201500 10007KT 1SM -RA BR OVC018
     FM201700 10006KT 1/2SM -RA FG OVC003
     FM202100 12008KT 1 1/2SM -RASN BR OVC003=

USA.gov is the U.S. government's official web portal to all federal, state and local government web resources and services.